createdAt,value
2019-05-22T00:00:25.397Z,0.00
2019-05-22T00:01:25.396Z,0.00
2019-05-22T00:02:25.383Z,0.00
2019-05-22T00:03:25.346Z,0.00
2019-05-22T00:04:25.527Z,0.00
2019-05-22T00:05:25.319Z,0.00
2019-05-22T00:06:25.283Z,0.00
2019-05-22T00:07:25.258Z,0.00
2019-05-22T00:08:25.228Z,0.00
2019-05-22T00:09:25.218Z,0.00
2019-05-22T00:10:25.184Z,0.00
2019-05-22T00:11:25.170Z,0.00
2019-05-22T00:12:25.145Z,0.00
2019-05-22T00:13:25.124Z,0.00
2019-05-22T00:14:25.109Z,0.00
2019-05-22T00:15:25.072Z,0.00
2019-05-22T00:16:25.050Z,0.00
2019-05-22T00:17:25.031Z,0.00
2019-05-22T00:18:24.992Z,0.00
2019-05-22T00:19:24.986Z,0.00
2019-05-22T00:20:24.967Z,0.00
2019-05-22T00:21:24.939Z,0.00
2019-05-22T00:22:24.905Z,0.00
2019-05-22T00:23:24.891Z,0.00
2019-05-22T00:24:24.874Z,0.00
2019-05-22T00:25:24.849Z,0.00
2019-05-22T00:26:24.825Z,0.00
2019-05-22T00:27:24.801Z,0.00
2019-05-22T00:28:24.784Z,0.00
2019-05-22T00:29:24.761Z,0.00
2019-05-22T00:30:24.734Z,0.00
2019-05-22T00:31:24.713Z,0.00
2019-05-22T00:32:24.692Z,0.00
2019-05-22T00:33:24.670Z,0.00
2019-05-22T00:34:24.647Z,0.00
2019-05-22T00:35:24.657Z,0.00
2019-05-22T00:36:24.596Z,0.00
2019-05-22T00:37:24.585Z,0.00
2019-05-22T00:38:24.549Z,0.00
2019-05-22T00:39:24.506Z,0.00
2019-05-22T00:40:24.507Z,0.00
2019-05-22T00:41:24.516Z,0.00
2019-05-22T00:42:24.466Z,0.00
2019-05-22T00:43:24.438Z,0.00
2019-05-22T00:44:24.430Z,0.00
2019-05-22T00:45:24.376Z,0.00
2019-05-22T00:46:24.378Z,0.00
2019-05-22T00:47:24.349Z,0.00
2019-05-22T00:48:24.321Z,0.00
2019-05-22T00:49:24.296Z,0.00
2019-05-22T00:50:24.277Z,0.00
2019-05-22T00:51:24.252Z,0.00
2019-05-22T00:52:24.232Z,0.00
2019-05-22T00:53:24.211Z,0.00
2019-05-22T00:54:24.189Z,0.00
2019-05-22T00:55:24.154Z,0.00
2019-05-22T00:56:24.145Z,0.00
2019-05-22T00:57:24.122Z,0.00
2019-05-22T00:58:24.075Z,0.00
2019-05-22T00:59:24.067Z,0.00
2019-05-22T01:00:24.058Z,0.00
2019-05-22T01:01:24.035Z,0.00
2019-05-22T01:02:23.986Z,0.00
2019-05-22T01:03:57.172Z,0.00
2019-05-22T01:04:23.938Z,0.00
2019-05-22T01:05:23.936Z,0.00
2019-05-22T01:06:23.893Z,0.00
2019-05-22T01:07:23.885Z,0.00
2019-05-22T01:08:23.889Z,0.00
2019-05-22T01:09:23.845Z,0.00
2019-05-22T01:10:23.826Z,0.00
2019-05-22T01:11:23.793Z,0.00
2019-05-22T01:12:23.770Z,0.00
2019-05-22T01:13:23.755Z,0.00
2019-05-22T01:14:23.724Z,0.00
2019-05-22T01:15:23.710Z,0.00
2019-05-22T01:16:23.685Z,0.00
2019-05-22T01:17:23.659Z,0.00
2019-05-22T01:18:23.633Z,0.00
2019-05-22T01:19:23.610Z,0.00
2019-05-22T01:20:23.572Z,0.00
2019-05-22T01:21:23.567Z,0.00
2019-05-22T01:22:23.546Z,0.00
2019-05-22T01:23:23.507Z,0.00
2019-05-22T01:24:23.503Z,0.00
2019-05-22T01:25:23.476Z,0.00
2019-05-22T01:26:23.450Z,0.00
2019-05-22T01:27:23.439Z,0.00
2019-05-22T01:28:23.405Z,0.00
2019-05-22T01:29:23.400Z,0.00
2019-05-22T01:30:23.365Z,0.00
2019-05-22T01:31:23.329Z,0.00
2019-05-22T01:32:23.307Z,0.00
2019-05-22T01:33:23.291Z,0.00
2019-05-22T01:34:23.283Z,0.00
2019-05-22T01:35:23.251Z,0.00
2019-05-22T01:36:23.223Z,0.00
2019-05-22T01:37:23.202Z,0.00
2019-05-22T01:38:23.181Z,0.00
2019-05-22T01:39:23.148Z,0.00
2019-05-22T01:40:23.124Z,0.00
2019-05-22T01:41:23.106Z,0.00
2019-05-22T01:42:23.084Z,0.00
2019-05-22T01:43:23.043Z,0.00
2019-05-22T01:44:23.037Z,0.00
2019-05-22T01:45:23.017Z,0.00
2019-05-22T01:46:22.971Z,0.00
2019-05-22T01:47:22.965Z,0.00
2019-05-22T01:48:22.945Z,0.00
2019-05-22T01:49:22.922Z,0.00
2019-05-22T01:50:22.907Z,0.00
2019-05-22T01:51:22.872Z,0.00
2019-05-22T01:52:22.853Z,0.00
2019-05-22T01:53:22.836Z,0.00
2019-05-22T01:54:22.807Z,0.00
2019-05-22T01:55:22.767Z,0.00
2019-05-22T01:56:22.741Z,0.00
2019-05-22T01:57:22.748Z,0.00
2019-05-22T01:58:22.715Z,0.00
2019-05-22T01:59:22.692Z,0.00
2019-05-22T02:00:22.673Z,0.00
2019-05-22T02:01:22.636Z,0.00
2019-05-22T02:02:22.616Z,0.00
2019-05-22T02:03:22.604Z,0.00
2019-05-22T02:04:22.567Z,0.00
2019-05-22T02:05:22.552Z,0.00
2019-05-22T02:06:22.536Z,0.00
2019-05-22T02:07:22.497Z,0.00
2019-05-22T02:08:22.481Z,0.00
2019-05-22T02:09:22.463Z,0.00
2019-05-22T02:10:22.434Z,0.00
2019-05-22T02:11:22.411Z,0.00
2019-05-22T02:12:22.400Z,0.00
2019-05-22T02:13:22.365Z,0.00
2019-05-22T02:14:22.322Z,0.00
2019-05-22T02:15:22.318Z,0.00
2019-05-22T02:16:22.291Z,0.00
2019-05-22T02:17:22.267Z,0.00
2019-05-22T02:18:22.249Z,0.00
2019-05-22T02:19:22.200Z,0.00
2019-05-22T02:20:22.180Z,0.00
2019-05-22T02:21:22.180Z,0.00
2019-05-22T02:22:22.158Z,0.00
2019-05-22T02:23:22.124Z,0.00
2019-05-22T02:24:22.102Z,0.00
2019-05-22T02:25:22.089Z,0.00
2019-05-22T02:26:22.058Z,0.00
2019-05-22T02:27:22.038Z,0.00
2019-05-22T02:28:22.011Z,0.00
2019-05-22T02:29:21.998Z,0.00
2019-05-22T02:30:21.980Z,0.00
2019-05-22T02:31:21.944Z,0.00
2019-05-22T02:32:21.926Z,0.00
2019-05-22T02:33:21.885Z,0.00
2019-05-22T02:34:21.872Z,0.00
2019-05-22T02:35:21.860Z,0.00
2019-05-22T02:36:21.830Z,0.00
2019-05-22T02:37:21.869Z,0.00
2019-05-22T02:38:21.763Z,0.00
2019-05-22T02:39:21.736Z,0.00
2019-05-22T02:40:21.745Z,0.00
2019-05-22T02:41:21.709Z,0.00
2019-05-22T02:42:54.893Z,0.00
2019-05-22T02:43:21.659Z,0.00
2019-05-22T02:44:21.639Z,0.00
2019-05-22T02:45:21.686Z,0.00
2019-05-22T02:46:21.588Z,0.00
2019-05-22T02:47:21.884Z,0.00
2019-05-22T02:48:21.545Z,0.00
2019-05-22T02:49:21.526Z,0.00
2019-05-22T02:50:21.492Z,0.00
2019-05-22T02:51:21.483Z,0.00
2019-05-22T02:52:21.451Z,0.00
2019-05-22T02:53:21.422Z,0.00
2019-05-22T02:54:21.401Z,0.00
2019-05-22T02:55:21.381Z,0.00
2019-05-22T02:56:21.339Z,0.00
2019-05-22T02:57:21.318Z,0.00
2019-05-22T02:58:21.307Z,0.00
2019-05-22T02:59:21.264Z,0.00
2019-05-22T03:00:21.261Z,0.00
2019-05-22T03:01:21.240Z,0.00
2019-05-22T03:02:21.228Z,0.00
2019-05-22T03:03:21.206Z,0.00
2019-05-22T03:04:21.170Z,0.00
2019-05-22T03:05:21.146Z,0.00
2019-05-22T03:06:21.158Z,0.00
2019-05-22T03:07:21.092Z,0.00
2019-05-22T03:08:21.070Z,0.00
2019-05-22T03:09:21.053Z,0.00
2019-05-22T03:10:21.026Z,0.00
2019-05-22T03:11:21.017Z,0.00
2019-05-22T03:12:20.988Z,0.00
2019-05-22T03:13:20.956Z,0.00
2019-05-22T03:14:20.928Z,0.00
2019-05-22T03:15:20.915Z,0.00
2019-05-22T03:16:20.889Z,0.00
2019-05-22T03:17:20.866Z,0.00
2019-05-22T03:18:20.821Z,0.00
2019-05-22T03:19:20.816Z,0.00
2019-05-22T03:20:20.803Z,0.00
2019-05-22T03:21:20.751Z,0.00
2019-05-22T03:22:20.828Z,0.00
2019-05-22T03:23:20.700Z,0.00
2019-05-22T03:24:20.697Z,0.00
2019-05-22T03:25:20.673Z,0.00
2019-05-22T03:26:20.648Z,0.00
2019-05-22T03:27:20.631Z,0.00
2019-05-22T03:28:20.607Z,0.00
2019-05-22T03:29:20.574Z,0.00
2019-05-22T03:30:20.562Z,0.00
2019-05-22T03:31:20.528Z,0.00
2019-05-22T03:32:20.504Z,0.00
2019-05-22T03:33:20.486Z,0.00
2019-05-22T03:34:20.448Z,0.00
2019-05-22T03:35:20.424Z,0.00
2019-05-22T03:36:20.422Z,0.00
2019-05-22T03:37:20.394Z,0.00
2019-05-22T03:38:20.613Z,0.00
2019-05-22T03:39:20.342Z,0.00
2019-05-22T03:40:20.318Z,0.00
2019-05-22T03:41:20.294Z,0.00
2019-05-22T03:42:20.270Z,0.00
2019-05-22T03:43:20.578Z,0.00
2019-05-22T03:44:20.204Z,0.00
2019-05-22T03:45:20.176Z,0.00
2019-05-22T03:46:20.174Z,0.00
2019-05-22T03:47:20.150Z,0.00
2019-05-22T03:48:20.124Z,0.00
2019-05-22T03:49:30.167Z,0.00
2019-05-22T03:50:20.101Z,0.00
2019-05-22T03:51:20.055Z,0.00
2019-05-22T03:52:20.026Z,0.00
2019-05-22T03:53:20.005Z,0.00
2019-05-22T03:54:19.991Z,0.00
2019-05-22T03:55:19.963Z,0.00
2019-05-22T03:56:19.937Z,0.00
2019-05-22T03:57:19.909Z,0.00
2019-05-22T03:58:19.898Z,0.00
2019-05-22T03:59:19.847Z,0.00
2019-05-22T04:00:19.847Z,0.00
2019-05-22T04:01:19.889Z,0.00
2019-05-22T04:02:19.781Z,0.00
2019-05-22T04:03:19.753Z,0.00
2019-05-22T04:04:19.743Z,0.00
2019-05-22T04:05:19.735Z,0.00
2019-05-22T04:06:19.698Z,0.00
2019-05-22T04:07:19.683Z,0.00
2019-05-22T04:08:19.696Z,0.00
2019-05-22T04:09:19.643Z,0.00
2019-05-22T04:10:19.598Z,0.00
2019-05-22T04:11:19.575Z,0.00
2019-05-22T04:12:19.553Z,0.00
2019-05-22T04:13:19.526Z,0.00
2019-05-22T04:14:19.537Z,0.00
2019-05-22T04:15:19.485Z,0.00
2019-05-22T04:16:19.454Z,0.00
2019-05-22T04:17:19.428Z,0.00
2019-05-22T04:18:22.829Z,0.00
2019-05-22T04:19:19.380Z,0.00
2019-05-22T04:20:19.555Z,0.00
2019-05-22T04:21:19.347Z,0.00
2019-05-22T04:22:19.339Z,0.00
2019-05-22T04:23:19.289Z,0.00
2019-05-22T04:24:19.266Z,0.00
2019-05-22T04:25:19.341Z,0.00
2019-05-22T04:26:19.212Z,0.00
2019-05-22T04:27:19.201Z,0.00
2019-05-22T04:28:19.167Z,0.00
2019-05-22T04:29:19.154Z,0.00
2019-05-22T04:30:19.126Z,0.00
2019-05-22T04:31:19.077Z,0.00
2019-05-22T04:32:19.077Z,0.00
2019-05-22T04:33:19.068Z,0.00
2019-05-22T04:34:19.021Z,0.00
2019-05-22T04:35:19.009Z,0.00
2019-05-22T04:36:18.968Z,0.00
2019-05-22T04:37:18.962Z,0.00
2019-05-22T04:38:18.930Z,0.00
2019-05-22T04:39:18.888Z,0.00
2019-05-22T04:40:18.862Z,0.00
2019-05-22T04:41:18.857Z,0.00
2019-05-22T04:42:18.843Z,0.00
2019-05-22T04:43:20.437Z,0.00
2019-05-22T04:44:18.789Z,0.00
2019-05-22T04:45:18.765Z,0.00
2019-05-22T04:46:18.736Z,0.00
2019-05-22T04:47:18.717Z,0.00
2019-05-22T04:48:18.690Z,0.00
2019-05-22T04:49:18.669Z,0.00
2019-05-22T04:50:18.649Z,0.00
2019-05-22T04:51:18.641Z,0.00
2019-05-22T04:52:18.706Z,0.00
2019-05-22T04:53:18.575Z,0.00
2019-05-22T04:54:18.551Z,0.00
2019-05-22T04:55:18.521Z,0.00
2019-05-22T04:56:18.502Z,0.00
2019-05-22T04:57:18.475Z,0.00
2019-05-22T04:58:18.449Z,0.00
2019-05-22T04:59:18.426Z,0.00
2019-05-22T05:00:18.419Z,0.00
2019-05-22T05:01:18.373Z,0.00
2019-05-22T05:02:18.364Z,0.00
2019-05-22T05:03:18.870Z,0.00
2019-05-22T05:04:18.307Z,0.00
2019-05-22T05:05:18.281Z,0.00
2019-05-22T05:06:18.257Z,0.00
2019-05-22T05:07:18.205Z,0.00
2019-05-22T05:08:18.213Z,0.00
2019-05-22T05:09:18.200Z,0.00
2019-05-22T05:10:18.159Z,0.00
2019-05-22T05:11:18.667Z,0.00
2019-05-22T05:12:18.105Z,0.00
2019-05-22T05:13:18.091Z,0.00
2019-05-22T05:14:18.069Z,0.00
2019-05-22T05:15:18.042Z,0.00
2019-05-22T05:16:18.012Z,0.00
2019-05-22T05:17:17.996Z,0.00
2019-05-22T05:18:17.979Z,0.00
2019-05-22T05:19:17.934Z,0.00
2019-05-22T05:20:22.501Z,0.00
2019-05-22T05:21:17.884Z,0.00
2019-05-22T05:22:17.860Z,0.00
2019-05-22T05:23:17.845Z,0.00
2019-05-22T05:24:17.823Z,0.00
2019-05-22T05:25:17.777Z,0.00
2019-05-22T05:26:17.769Z,0.00
2019-05-22T05:27:17.746Z,0.00
2019-05-22T05:28:17.724Z,0.00
2019-05-22T05:29:17.690Z,0.00
2019-05-22T05:30:17.705Z,0.00
2019-05-22T05:31:17.649Z,0.00
2019-05-22T05:32:17.629Z,0.00
2019-05-22T05:33:17.620Z,0.00
2019-05-22T05:34:17.572Z,0.00
2019-05-22T05:35:17.526Z,0.00
2019-05-22T05:36:17.526Z,0.00
2019-05-22T05:37:17.496Z,0.00
2019-05-22T05:38:17.479Z,0.00
2019-05-22T05:39:17.446Z,0.00
2019-05-22T05:40:17.414Z,0.00
2019-05-22T05:41:17.403Z,0.00
2019-05-22T05:42:17.380Z,0.00
2019-05-22T05:43:17.358Z,0.00
2019-05-22T05:44:17.333Z,0.00
2019-05-22T05:45:17.303Z,0.00
2019-05-22T05:46:17.284Z,0.00
2019-05-22T05:47:17.254Z,0.00
2019-05-22T05:48:17.232Z,0.00
2019-05-22T05:49:17.203Z,0.00
2019-05-22T05:50:17.184Z,0.00
2019-05-22T05:51:17.155Z,0.00
2019-05-22T05:52:17.132Z,0.00
2019-05-22T05:53:17.112Z,0.00
2019-05-22T05:54:17.083Z,0.00
2019-05-22T05:55:17.059Z,0.00
2019-05-22T05:56:17.031Z,0.00
2019-05-22T05:57:17.012Z,0.00
2019-05-22T05:58:16.985Z,0.00
2019-05-22T05:59:16.968Z,0.00
2019-05-22T06:00:16.938Z,0.00
2019-05-22T06:01:16.910Z,0.00
2019-05-22T06:02:16.889Z,0.00
2019-05-22T06:03:16.846Z,0.00
2019-05-22T06:04:16.829Z,0.00
2019-05-22T06:05:16.809Z,0.00
2019-05-22T06:06:16.785Z,0.00
2019-05-22T06:07:16.765Z,0.00
2019-05-22T06:08:16.734Z,0.00
2019-05-22T06:09:16.721Z,0.00
2019-05-22T06:10:16.694Z,0.00
2019-05-22T06:11:16.661Z,0.00
2019-05-22T06:12:16.616Z,0.00
2019-05-22T06:13:16.614Z,0.00
2019-05-22T06:14:16.591Z,0.00
2019-05-22T06:15:16.568Z,0.00
2019-05-22T06:16:16.542Z,0.00
2019-05-22T06:17:16.513Z,0.00
2019-05-22T06:18:16.486Z,0.00
2019-05-22T06:19:16.465Z,0.00
2019-05-22T06:20:16.437Z,0.00
2019-05-22T06:21:16.416Z,0.00
2019-05-22T06:22:16.388Z,0.00
2019-05-22T06:23:16.350Z,0.00
2019-05-22T06:24:16.346Z,0.00
2019-05-22T06:25:16.312Z,0.00
2019-05-22T06:26:16.301Z,0.00
2019-05-22T06:27:16.270Z,0.00
2019-05-22T06:28:16.251Z,0.00
2019-05-22T06:29:16.225Z,0.00
2019-05-22T06:30:16.207Z,0.00
2019-05-22T06:31:16.175Z,0.00
2019-05-22T06:32:16.150Z,0.00
2019-05-22T06:33:16.121Z,0.00
2019-05-22T06:34:16.083Z,0.00
2019-05-22T06:35:16.066Z,0.00
2019-05-22T06:36:16.052Z,0.00
2019-05-22T06:37:16.020Z,0.00
2019-05-22T06:38:15.998Z,0.00
2019-05-22T06:39:15.945Z,0.00
2019-05-22T06:40:15.926Z,0.00
2019-05-22T06:41:15.898Z,0.00
2019-05-22T06:42:15.878Z,0.00
2019-05-22T06:43:15.871Z,0.00
2019-05-22T06:44:15.852Z,0.00
2019-05-22T06:45:15.816Z,0.00
2019-05-22T06:46:15.801Z,0.00
2019-05-22T06:47:15.775Z,0.00
2019-05-22T06:48:15.750Z,0.00
2019-05-22T06:49:15.725Z,0.00
2019-05-22T06:50:15.700Z,0.00
2019-05-22T06:51:19.497Z,0.00
2019-05-22T06:52:15.653Z,0.00
2019-05-22T06:53:15.625Z,0.00
2019-05-22T06:54:15.603Z,0.00
2019-05-22T06:55:15.582Z,0.00
2019-05-22T06:56:15.549Z,0.00
2019-05-22T06:57:15.530Z,0.00
2019-05-22T06:58:15.496Z,0.00
2019-05-22T06:59:15.479Z,0.00
2019-05-22T07:00:15.642Z,0.00
2019-05-22T07:01:15.424Z,0.00
2019-05-22T07:02:15.444Z,0.00
2019-05-22T07:03:15.385Z,0.00
2019-05-22T07:04:15.369Z,0.00
2019-05-22T07:05:15.311Z,0.00
2019-05-22T07:06:15.306Z,0.00
2019-05-22T07:07:15.257Z,0.00
2019-05-22T07:08:15.234Z,0.00
2019-05-22T07:09:15.226Z,0.00
2019-05-22T07:10:15.202Z,0.00
2019-05-22T07:11:15.180Z,0.00
2019-05-22T07:12:15.155Z,0.00
2019-05-22T07:13:15.144Z,0.00
2019-05-22T07:14:15.109Z,0.00
2019-05-22T07:15:15.087Z,0.00
2019-05-22T07:16:15.055Z,0.00
2019-05-22T07:17:15.019Z,0.00
2019-05-22T07:18:14.998Z,0.00
2019-05-22T07:19:14.965Z,0.00
2019-05-22T07:20:14.945Z,0.00
2019-05-22T07:21:14.929Z,0.00
2019-05-22T07:22:14.906Z,0.00
2019-05-22T07:23:14.881Z,0.00
2019-05-22T07:24:14.857Z,0.00
2019-05-22T07:25:14.813Z,0.00
2019-05-22T07:26:14.789Z,0.00
2019-05-22T07:27:14.789Z,0.00
2019-05-22T07:28:14.736Z,0.00
2019-05-22T07:29:14.714Z,0.00
2019-05-22T07:30:14.707Z,0.00
2019-05-22T07:31:14.699Z,0.00
2019-05-22T07:32:14.655Z,0.00
2019-05-22T07:33:14.645Z,0.00
2019-05-22T07:34:14.606Z,0.00
2019-05-22T07:35:14.583Z,0.00
2019-05-22T07:36:17.057Z,0.00
2019-05-22T07:37:14.530Z,0.00
2019-05-22T07:38:14.506Z,0.00
2019-05-22T07:39:14.487Z,0.00
2019-05-22T07:40:14.462Z,0.00
2019-05-22T07:41:14.435Z,0.00
2019-05-22T07:42:14.406Z,0.00
2019-05-22T07:43:14.399Z,0.00
2019-05-22T07:44:14.366Z,0.00
2019-05-22T07:45:14.312Z,0.00
2019-05-22T07:46:14.290Z,0.00
2019-05-22T07:47:14.268Z,0.00
2019-05-22T07:48:14.292Z,0.00
2019-05-22T07:49:14.232Z,0.00
2019-05-22T07:50:14.218Z,0.00
2019-05-22T07:51:14.193Z,0.00
2019-05-22T07:52:14.156Z,0.00
2019-05-22T07:53:14.137Z,0.00
2019-05-22T07:54:14.113Z,0.00
2019-05-22T07:55:14.087Z,0.00
2019-05-22T07:56:14.062Z,0.00
2019-05-22T07:57:14.035Z,0.00
2019-05-22T07:58:14.012Z,0.00
2019-05-22T07:59:13.984Z,0.00
2019-05-22T08:00:13.962Z,0.00
2019-05-22T08:01:13.933Z,0.00
2019-05-22T08:02:13.908Z,0.00
2019-05-22T08:03:13.882Z,0.00
2019-05-22T08:04:13.859Z,0.00
2019-05-22T08:05:13.819Z,0.00
2019-05-22T08:06:13.812Z,0.00
2019-05-22T08:07:13.786Z,0.00
2019-05-22T08:08:13.757Z,0.00
2019-05-22T08:09:13.727Z,0.00
2019-05-22T08:10:13.724Z,0.00
2019-05-22T08:11:13.670Z,0.00
2019-05-22T08:12:13.640Z,0.00
2019-05-22T08:13:13.634Z,0.00
2019-05-22T08:14:13.606Z,0.00
2019-05-22T08:15:13.585Z,0.00
2019-05-22T08:16:13.563Z,0.00
2019-05-22T08:17:13.537Z,0.00
2019-05-22T08:18:13.509Z,0.00
2019-05-22T08:19:13.489Z,0.00
2019-05-22T08:20:13.463Z,0.00
2019-05-22T08:21:13.421Z,0.00
2019-05-22T08:22:13.397Z,0.00
2019-05-22T08:23:13.381Z,0.00
2019-05-22T08:24:13.366Z,0.00
2019-05-22T08:25:13.337Z,0.00
2019-05-22T08:26:13.320Z,0.00
2019-05-22T08:27:13.265Z,0.00
2019-05-22T08:28:13.277Z,0.00
2019-05-22T08:29:13.247Z,0.00
2019-05-22T08:30:13.190Z,0.00
2019-05-22T08:31:13.283Z,0.00
2019-05-22T08:32:13.138Z,0.00
2019-05-22T08:33:13.114Z,0.00
2019-05-22T08:34:13.090Z,0.00
2019-05-22T08:35:13.083Z,0.00
2019-05-22T08:36:13.074Z,0.00
2019-05-22T08:37:13.036Z,0.00
2019-05-22T08:38:13.013Z,0.00
2019-05-22T08:39:12.999Z,0.00
2019-05-22T08:40:12.963Z,0.00
2019-05-22T08:41:13.008Z,0.00
2019-05-22T08:42:12.903Z,0.00
2019-05-22T08:43:12.884Z,0.00
2019-05-22T08:44:16.561Z,0.00
2019-05-22T08:45:12.831Z,0.00
2019-05-22T08:46:12.807Z,0.00
2019-05-22T08:47:12.764Z,0.00
2019-05-22T08:48:12.738Z,0.00
2019-05-22T08:49:12.835Z,0.00
2019-05-22T08:50:12.689Z,0.00
2019-05-22T08:51:12.670Z,0.00
2019-05-22T08:52:23.188Z,0.00
2019-05-22T08:53:12.633Z,0.00
2019-05-22T08:54:12.610Z,0.00
2019-05-22T08:55:12.585Z,0.00
2019-05-22T08:56:12.555Z,0.00
2019-05-22T08:57:12.527Z,0.00
2019-05-22T08:58:12.511Z,0.00
2019-05-22T08:59:19.593Z,0.00
2019-05-22T09:00:12.652Z,0.00
2019-05-22T09:01:12.445Z,0.00
2019-05-22T09:02:12.407Z,0.00
2019-05-22T09:03:12.376Z,0.00
2019-05-22T09:04:12.356Z,0.00
2019-05-22T09:05:12.349Z,0.00
2019-05-22T09:06:12.315Z,0.00
2019-05-22T09:07:12.274Z,0.00
2019-05-22T09:08:12.255Z,0.00
2019-05-22T09:09:12.251Z,0.00
2019-05-22T09:10:12.188Z,0.00
2019-05-22T09:11:12.173Z,0.00
2019-05-22T09:12:12.157Z,0.00
2019-05-22T09:13:12.125Z,0.00
2019-05-22T09:14:12.096Z,0.00
2019-05-22T09:15:12.067Z,0.00
2019-05-22T09:16:12.055Z,0.00
2019-05-22T09:17:12.036Z,0.00
2019-05-22T09:18:12.104Z,0.00
2019-05-22T09:19:12.043Z,0.00
2019-05-22T09:20:12.046Z,0.00
2019-05-22T09:21:11.933Z,0.00
2019-05-22T09:22:11.898Z,0.00
2019-05-22T09:23:11.873Z,0.00
2019-05-22T09:24:11.858Z,0.00
2019-05-22T09:25:11.907Z,0.00
2019-05-22T09:26:11.786Z,0.00
2019-05-22T09:27:11.779Z,5.63
2019-05-22T09:28:11.753Z,5.63
2019-05-22T09:29:11.733Z,5.63
2019-05-22T09:30:11.709Z,5.63
2019-05-22T09:31:11.673Z,5.63
2019-05-22T09:32:11.650Z,11.25
2019-05-22T09:33:11.610Z,11.25
2019-05-22T09:34:11.650Z,11.25
2019-05-22T09:35:11.556Z,11.25
2019-05-22T09:36:11.529Z,16.88
2019-05-22T09:37:11.506Z,16.88
2019-05-22T09:38:11.474Z,22.50
2019-05-22T09:39:11.474Z,22.50
2019-05-22T09:40:11.471Z,28.13
2019-05-22T09:41:11.418Z,28.13
2019-05-22T09:42:11.396Z,33.75
2019-05-22T09:43:11.367Z,33.75
2019-05-22T09:44:15.025Z,39.38
2019-05-22T09:45:11.316Z,45.00
2019-05-22T09:46:11.300Z,50.63
2019-05-22T09:47:11.283Z,56.25
2019-05-22T09:48:11.247Z,56.25
2019-05-22T09:49:11.229Z,67.50
2019-05-22T09:50:11.198Z,73.13
2019-05-22T09:51:11.155Z,78.75
2019-05-22T09:52:11.127Z,90.00
2019-05-22T09:53:11.098Z,95.63
2019-05-22T09:54:11.073Z,101.25
2019-05-22T09:55:11.068Z,106.88
2019-05-22T09:56:11.027Z,112.50
2019-05-22T09:57:11.029Z,118.13
2019-05-22T09:58:10.991Z,123.75
2019-05-22T09:59:10.971Z,123.75
2019-05-22T10:00:10.956Z,129.38
2019-05-22T10:01:12.103Z,129.38
2019-05-22T10:02:10.897Z,140.63
2019-05-22T10:03:10.894Z,140.63
2019-05-22T10:04:10.842Z,129.38
2019-05-22T10:05:10.821Z,146.25
2019-05-22T10:06:11.556Z,168.75
2019-05-22T10:07:10.769Z,185.63
2019-05-22T10:08:10.761Z,185.63
2019-05-22T10:09:10.723Z,191.25
2019-05-22T10:10:10.698Z,202.50
2019-05-22T10:11:10.672Z,208.13
2019-05-22T10:12:10.658Z,213.75
2019-05-22T10:13:10.630Z,219.38
2019-05-22T10:14:10.589Z,225.00
2019-05-22T10:15:10.583Z,230.63
2019-05-22T10:16:10.572Z,236.25
2019-05-22T10:17:10.525Z,241.88
2019-05-22T10:18:10.521Z,253.13
2019-05-22T10:19:10.488Z,253.13
2019-05-22T10:20:10.479Z,258.75
2019-05-22T10:21:10.444Z,264.38
2019-05-22T10:22:10.418Z,270.00
2019-05-22T10:23:15.545Z,275.63
2019-05-22T10:24:10.424Z,281.25
2019-05-22T10:25:16.339Z,292.50
2019-05-22T10:26:10.330Z,292.50
2019-05-22T10:27:10.311Z,298.13
2019-05-22T10:28:10.280Z,303.75
2019-05-22T10:29:10.265Z,309.38
2019-05-22T10:30:10.222Z,315.00
2019-05-22T10:31:11.299Z,320.63
2019-05-22T10:32:10.197Z,326.25
2019-05-22T10:33:10.181Z,331.88
2019-05-22T10:34:10.149Z,331.88
2019-05-22T10:35:10.131Z,337.50
2019-05-22T10:36:10.109Z,343.13
2019-05-22T10:37:10.090Z,354.38
2019-05-22T10:38:10.074Z,360.00
2019-05-22T10:39:10.024Z,365.63
2019-05-22T10:40:10.027Z,382.50
2019-05-22T10:41:10.011Z,371.25
2019-05-22T10:42:10.058Z,376.88
2019-05-22T10:43:09.958Z,382.50
2019-05-22T10:44:09.915Z,388.13
2019-05-22T10:45:09.922Z,393.75
2019-05-22T10:46:09.927Z,399.38
2019-05-22T10:47:09.882Z,405.00
2019-05-22T10:48:09.866Z,410.63
2019-05-22T10:49:09.837Z,416.25
2019-05-22T10:50:09.842Z,421.88
2019-05-22T10:51:09.790Z,433.13
2019-05-22T10:52:09.775Z,438.75
2019-05-22T10:53:09.751Z,438.75
2019-05-22T10:54:09.710Z,444.38
2019-05-22T10:55:09.719Z,450.00
2019-05-22T10:56:10.014Z,450.00
2019-05-22T10:57:09.678Z,466.88
2019-05-22T10:58:09.661Z,466.88
2019-05-22T10:59:09.696Z,466.88
2019-05-22T11:00:09.594Z,472.50
2019-05-22T11:01:09.597Z,478.13
2019-05-22T11:02:09.583Z,489.38
2019-05-22T11:03:09.564Z,489.38
2019-05-22T11:04:09.536Z,495.00
2019-05-22T11:05:09.526Z,500.63
2019-05-22T11:06:09.511Z,500.63
2019-05-22T11:07:09.481Z,511.88
2019-05-22T11:08:09.469Z,511.88
2019-05-22T11:09:09.442Z,517.50
2019-05-22T11:10:09.421Z,523.13
2019-05-22T11:11:09.404Z,528.75
2019-05-22T11:12:09.395Z,540.00
2019-05-22T11:13:09.509Z,540.00
2019-05-22T11:14:09.740Z,545.63
2019-05-22T11:15:09.331Z,551.25
2019-05-22T11:16:09.456Z,556.88
2019-05-22T11:17:09.302Z,562.50
2019-05-22T11:18:09.281Z,579.38
2019-05-22T11:19:09.236Z,590.63
2019-05-22T11:20:09.238Z,601.88
2019-05-22T11:21:09.206Z,601.88
2019-05-22T11:22:09.187Z,607.50
2019-05-22T11:23:09.177Z,618.75
2019-05-22T11:24:09.151Z,635.63
2019-05-22T11:25:09.153Z,641.25
2019-05-22T11:26:09.134Z,652.50
2019-05-22T11:27:09.116Z,658.13
2019-05-22T11:28:09.107Z,663.75
2019-05-22T11:29:09.081Z,663.75
2019-05-22T11:30:09.065Z,686.25
2019-05-22T11:31:09.050Z,691.88
2019-05-22T11:32:09.037Z,708.75
2019-05-22T11:33:09.067Z,725.63
2019-05-22T11:34:09.005Z,731.25
2019-05-22T11:35:08.983Z,731.25
2019-05-22T11:36:08.945Z,753.75
2019-05-22T11:37:08.947Z,753.75
2019-05-22T11:38:08.907Z,759.38
2019-05-22T11:39:08.910Z,765.00
2019-05-22T11:40:08.887Z,770.63
2019-05-22T11:41:08.853Z,770.63
2019-05-22T11:42:08.844Z,770.63
2019-05-22T11:43:08.847Z,787.50
2019-05-22T11:44:08.805Z,781.88
2019-05-22T11:45:08.805Z,793.13
2019-05-22T11:46:08.790Z,798.75
2019-05-22T11:47:08.771Z,804.38
2019-05-22T11:48:08.738Z,821.25
2019-05-22T11:49:08.742Z,821.25
2019-05-22T11:50:08.720Z,821.25
2019-05-22T11:51:08.709Z,821.25
2019-05-22T11:52:08.698Z,838.13
2019-05-22T11:53:08.666Z,843.75
2019-05-22T11:54:09.917Z,843.75
2019-05-22T11:55:08.638Z,843.75
2019-05-22T11:56:08.626Z,849.38
2019-05-22T11:57:08.604Z,855.00
2019-05-22T11:58:08.587Z,855.00
2019-05-22T11:59:08.567Z,866.25
2019-05-22T12:00:09.428Z,877.50
2019-05-22T12:01:08.540Z,888.75
2019-05-22T12:02:08.502Z,894.38
2019-05-22T12:03:08.508Z,900.00
2019-05-22T12:04:08.474Z,900.00
2019-05-22T12:05:08.471Z,905.63
2019-05-22T12:06:08.456Z,922.50
2019-05-22T12:07:08.443Z,922.50
2019-05-22T12:08:08.446Z,933.75
2019-05-22T12:09:08.406Z,950.63
2019-05-22T12:10:08.384Z,961.88
2019-05-22T12:11:08.372Z,973.13
2019-05-22T12:12:08.350Z,967.50
2019-05-22T12:13:08.337Z,973.13
2019-05-22T12:14:08.451Z,973.13
2019-05-22T12:15:08.493Z,978.75
2019-05-22T12:16:08.289Z,990.00
2019-05-22T12:17:08.271Z,995.63
2019-05-22T12:18:08.255Z,995.63
2019-05-22T12:19:08.233Z,1006.88
2019-05-22T12:20:08.221Z,1018.13
2019-05-22T12:21:08.198Z,1046.25
2019-05-22T12:22:08.201Z,1046.25
2019-05-22T12:23:08.150Z,1057.50
2019-05-22T12:24:08.161Z,1074.38
2019-05-22T12:25:08.120Z,1085.63
2019-05-22T12:26:08.122Z,1080.00
2019-05-22T12:27:08.090Z,1080.00
2019-05-22T12:28:08.071Z,1102.50
2019-05-22T12:29:08.091Z,1085.63
2019-05-22T12:30:08.161Z,1108.13
2019-05-22T12:31:08.043Z,1136.25
2019-05-22T12:32:08.023Z,1125.00
2019-05-22T12:33:13.086Z,1158.75
2019-05-22T12:34:07.997Z,1153.13
2019-05-22T12:35:07.980Z,1175.63
2019-05-22T12:36:07.966Z,1186.88
2019-05-22T12:37:07.926Z,1198.13
2019-05-22T12:38:07.925Z,1192.50
2019-05-22T12:39:07.889Z,1181.25
2019-05-22T12:40:07.878Z,1198.13
2019-05-22T12:41:07.866Z,1192.50
2019-05-22T12:42:07.848Z,1170.00
2019-05-22T12:43:07.848Z,1192.50
2019-05-22T12:44:07.835Z,1186.88
2019-05-22T12:45:07.878Z,1186.88
2019-05-22T12:46:07.805Z,1209.38
2019-05-22T12:47:07.804Z,1215.00
2019-05-22T12:48:07.773Z,1198.13
2019-05-22T12:49:09.038Z,1198.13
2019-05-22T12:50:07.745Z,1220.63
2019-05-22T12:51:40.934Z,1198.13
2019-05-22T12:52:07.719Z,1170.00
2019-05-22T12:53:07.700Z,1192.50
2019-05-22T12:54:07.737Z,1226.25
2019-05-22T12:55:07.666Z,1231.88
2019-05-22T12:56:07.659Z,1265.63
2019-05-22T12:57:07.650Z,1276.88
2019-05-22T12:58:07.632Z,1260.00
2019-05-22T12:59:07.612Z,1231.88
2019-05-22T13:00:07.596Z,1226.25
2019-05-22T13:01:07.590Z,1243.13
2019-05-22T13:02:07.575Z,1243.13
2019-05-22T13:03:07.564Z,1282.50